createdAt,value
2022-09-28T00:01:05.513Z,8.40
2022-09-28T00:03:32.420Z,8.50
2022-09-28T00:06:04.001Z,8.50
2022-09-28T00:08:31.114Z,8.50
2022-09-28T00:10:58.700Z,8.50
2022-09-28T00:13:25.605Z,8.50
2022-09-28T00:16:04.200Z,8.50
2022-09-28T00:18:32.338Z,8.50
2022-09-28T00:21:02.313Z,8.60
2022-09-28T00:23:29.370Z,8.60
2022-09-28T00:25:56.261Z,8.60
2022-09-28T00:28:23.135Z,8.60
2022-09-28T00:30:55.876Z,8.60
2022-09-28T00:33:22.855Z,8.60
2022-09-28T00:35:57.909Z,8.60
2022-09-28T00:38:30.951Z,8.70
2022-09-28T00:40:59.575Z,8.60
2022-09-28T00:43:26.732Z,8.60
2022-09-28T00:46:00.503Z,8.60
2022-09-28T00:48:31.195Z,8.60
2022-09-28T00:51:00.498Z,8.50
2022-09-28T00:53:32.661Z,8.60
2022-09-28T00:56:03.786Z,8.50
2022-09-28T00:58:34.837Z,8.60
2022-09-28T01:01:02.371Z,8.60
2022-09-28T01:03:29.611Z,8.60
2022-09-28T01:05:59.119Z,8.60
2022-09-28T01:08:29.588Z,8.60
2022-09-28T01:10:59.293Z,8.60
2022-09-28T01:13:30.282Z,8.60
2022-09-28T01:16:28.803Z,8.60
2022-09-28T01:19:10.586Z,8.60
2022-09-28T01:21:54.383Z,8.50
2022-09-28T01:24:48.705Z,8.50
2022-09-28T01:27:24.572Z,8.50
2022-09-28T01:30:07.697Z,8.50
2022-09-28T01:32:46.835Z,8.50
2022-09-28T01:35:16.131Z,8.50
2022-09-28T01:38:13.918Z,8.50
2022-09-28T01:40:41.810Z,8.40
2022-09-28T01:43:16.532Z,8.40
2022-09-28T01:46:16.167Z,8.40
2022-09-28T01:48:55.273Z,8.40
2022-09-28T01:51:36.466Z,8.40
2022-09-28T01:54:09.613Z,8.50
2022-09-28T01:56:49.221Z,8.50
2022-09-28T01:59:20.548Z,8.40
2022-09-28T02:02:09.792Z,8.40
2022-09-28T02:04:54.224Z,8.40
2022-09-28T02:07:31.410Z,8.40
2022-09-28T02:10:07.222Z,8.30
2022-09-28T02:12:42.616Z,8.30
2022-09-28T02:15:10.921Z,8.30
2022-09-28T02:17:38.304Z,8.30
2022-09-28T02:20:05.708Z,8.40
2022-09-28T02:22:40.645Z,8.40
2022-09-28T02:25:19.910Z,8.30
2022-09-28T02:28:01.741Z,8.20
2022-09-28T02:30:35.749Z,8.20
2022-09-28T02:33:11.749Z,8.20
2022-09-28T02:35:41.479Z,8.30
2022-09-28T02:38:10.032Z,8.30
2022-09-28T02:40:38.151Z,8.40
2022-09-28T02:43:14.057Z,8.40
2022-09-28T02:45:56.033Z,8.40
2022-09-28T02:48:43.567Z,8.50
2022-09-28T02:51:20.433Z,8.40
2022-09-28T02:53:50.441Z,8.40
2022-09-28T02:56:20.407Z,8.40
2022-09-28T02:59:05.999Z,8.40
2022-09-28T03:01:39.682Z,8.30
2022-09-28T03:04:17.906Z,8.50
2022-09-28T03:06:54.038Z,8.50
2022-09-28T03:09:26.856Z,8.60
2022-09-28T03:11:58.904Z,8.60
2022-09-28T03:14:25.908Z,8.60
2022-09-28T03:16:56.581Z,8.60
2022-09-28T03:19:33.874Z,8.60
2022-09-28T03:22:01.826Z,8.70
2022-09-28T03:24:28.889Z,8.70
2022-09-28T03:26:55.765Z,8.70
2022-09-28T03:29:23.263Z,8.70
2022-09-28T03:31:57.234Z,8.70
2022-09-28T03:34:24.181Z,8.70
2022-09-28T03:36:51.786Z,8.70
2022-09-28T03:39:19.157Z,8.70
2022-09-28T03:41:45.990Z,8.80
2022-09-28T03:44:12.992Z,8.80
2022-09-28T03:46:40.292Z,8.80
2022-09-28T03:49:09.953Z,8.80
2022-09-28T03:51:36.945Z,8.80
2022-09-28T03:54:04.453Z,8.90
2022-09-28T03:56:31.399Z,8.90
2022-09-28T03:58:58.426Z,8.90
2022-09-28T04:01:26.367Z,8.90
2022-09-28T04:03:57.419Z,9.00
2022-09-28T04:06:26.007Z,8.90
2022-09-28T04:08:53.146Z,8.90
2022-09-28T04:11:20.109Z,9.00
2022-09-28T04:13:50.368Z,8.90
2022-09-28T04:16:18.613Z,9.00
2022-09-28T04:18:55.172Z,9.00
2022-09-28T04:21:34.045Z,9.00
2022-09-28T04:24:10.285Z,9.00
2022-09-28T04:26:37.314Z,9.00
2022-09-28T04:29:16.497Z,9.00
2022-09-28T04:31:51.630Z,9.00
2022-09-28T04:34:22.871Z,9.00
2022-09-28T04:36:50.250Z,9.00
2022-09-28T04:39:19.344Z,9.00
2022-09-28T04:41:52.671Z,9.00
2022-09-28T04:44:19.643Z,9.10
2022-09-28T04:46:47.778Z,9.10
2022-09-28T04:49:37.103Z,9.10
2022-09-28T04:52:07.724Z,9.10
2022-09-28T04:54:35.746Z,9.10
2022-09-28T04:57:03.788Z,9.20
2022-09-28T04:59:30.907Z,9.20
2022-09-28T05:01:57.926Z,9.20
2022-09-28T05:04:43.911Z,9.10
2022-09-28T05:07:26.918Z,9.20
2022-09-28T05:09:55.331Z,9.20
2022-09-28T05:12:22.264Z,9.20
2022-09-28T05:14:49.563Z,9.10
2022-09-28T05:17:16.515Z,9.10
2022-09-28T05:20:03.119Z,9.10
2022-09-28T05:22:30.455Z,9.10
2022-09-28T05:24:59.170Z,9.20
2022-09-28T05:27:26.982Z,9.20
2022-09-28T05:30:07.271Z,9.30
2022-09-28T05:33:07.754Z,9.20
2022-09-28T05:35:54.426Z,9.10
2022-09-28T05:38:23.902Z,9.10
2022-09-28T05:40:51.357Z,9.10
2022-09-28T05:43:18.738Z,9.10
2022-09-28T05:45:45.797Z,9.10
2022-09-28T05:48:13.227Z,9.00
2022-09-28T05:50:41.068Z,8.90
2022-09-28T05:53:09.725Z,8.90
2022-09-28T05:55:37.957Z,8.70
2022-09-28T05:58:06.604Z,8.70
2022-09-28T06:00:35.252Z,8.60
2022-09-28T06:03:09.283Z,8.60
2022-09-28T06:05:37.611Z,8.50
2022-09-28T06:08:05.994Z,8.50
2022-09-28T06:10:34.093Z,8.40
2022-09-28T06:13:01.732Z,8.40
2022-09-28T06:15:30.631Z,8.40
2022-09-28T06:18:07.103Z,8.30
2022-09-28T06:20:41.760Z,8.40
2022-09-28T06:23:14.059Z,8.30
2022-09-28T06:25:41.349Z,8.40
2022-09-28T06:28:13.889Z,8.40
2022-09-28T06:30:42.321Z,8.40
2022-09-28T06:33:14.075Z,8.40
2022-09-28T06:35:42.333Z,8.50
2022-09-28T06:38:10.583Z,8.40
2022-09-28T06:40:38.173Z,8.50
2022-09-28T06:43:15.356Z,8.60
2022-09-28T06:46:01.589Z,8.60
2022-09-28T06:48:47.358Z,8.60
2022-09-28T06:51:40.048Z,8.40
2022-09-28T06:54:18.942Z,8.40
2022-09-28T06:57:02.384Z,8.50
2022-09-28T06:59:30.150Z,8.50
2022-09-28T07:01:59.770Z,8.50
2022-09-28T07:04:45.117Z,8.60
2022-09-28T07:07:33.078Z,8.50
2022-09-28T07:10:12.905Z,8.40
2022-09-28T07:13:02.707Z,8.50
2022-09-28T07:15:43.582Z,8.40
2022-09-28T07:18:13.328Z,8.50
2022-09-28T07:20:53.018Z,8.50
2022-09-28T07:23:21.338Z,8.60
2022-09-28T07:26:11.359Z,8.60
2022-09-28T07:28:55.851Z,8.60
2022-09-28T07:31:37.923Z,8.70
2022-09-28T07:34:28.043Z,8.70
2022-09-28T07:37:11.028Z,8.70
2022-09-28T07:39:58.416Z,8.70
2022-09-28T07:42:30.122Z,8.80
2022-09-28T07:44:58.560Z,8.80
2022-09-28T07:47:34.653Z,8.90
2022-09-28T07:50:21.361Z,9.00
2022-09-28T07:53:06.630Z,9.00
2022-09-28T07:56:09.437Z,9.10
2022-09-28T07:58:49.750Z,9.10
2022-09-28T08:01:22.657Z,9.10
2022-09-28T08:03:51.671Z,9.10
2022-09-28T08:06:18.947Z,9.10
2022-09-28T08:08:46.090Z,9.10
2022-09-28T08:11:17.876Z,9.20
2022-09-28T08:14:05.038Z,9.10
2022-09-28T08:16:53.107Z,9.10
2022-09-28T08:19:58.354Z,9.10
2022-09-28T08:22:25.417Z,9.10
2022-09-28T08:24:55.731Z,9.10
2022-09-28T08:27:22.747Z,9.10
2022-09-28T08:29:49.800Z,9.10
2022-09-28T08:32:38.830Z,9.20
2022-09-28T08:35:34.854Z,9.30
2022-09-28T08:38:40.022Z,9.20
2022-09-28T08:41:39.073Z,9.10
2022-09-28T08:47:47.476Z,9.10
2022-09-28T08:50:33.747Z,9.20
2022-09-28T08:53:27.049Z,9.10
2022-09-28T08:56:39.337Z,9.00
2022-09-28T08:59:20.035Z,8.90
2022-09-28T09:02:04.389Z,8.80
2022-09-28T09:04:33.884Z,8.80
2022-09-28T09:07:39.441Z,8.60
2022-09-28T09:10:39.264Z,8.60
2022-09-28T09:13:23.555Z,8.70
2022-09-28T09:16:21.177Z,8.70
2022-09-28T09:19:15.285Z,8.70
2022-09-28T09:22:14.421Z,8.70
2022-09-28T09:24:49.885Z,8.70
2022-09-28T09:27:40.151Z,8.70
2022-09-28T09:30:17.899Z,8.80
2022-09-28T09:32:58.741Z,8.80
2022-09-28T09:35:41.152Z,8.80
2022-09-28T09:38:36.283Z,8.90
2022-09-28T09:41:24.772Z,9.10
2022-09-28T09:44:35.243Z,9.10
2022-09-28T09:47:44.541Z,9.20
2022-09-28T09:50:31.636Z,9.40
2022-09-28T09:53:24.267Z,9.30
2022-09-28T09:56:00.489Z,9.30
2022-09-28T09:58:38.207Z,9.40
2022-09-28T10:01:50.427Z,9.50
2022-09-28T10:04:32.497Z,9.60
2022-09-28T10:07:09.101Z,9.50
2022-09-28T10:09:42.899Z,9.60
2022-09-28T10:12:41.974Z,9.60
2022-09-28T10:15:14.970Z,9.50
2022-09-28T10:17:50.270Z,9.70
2022-09-28T10:20:46.238Z,9.60
2022-09-28T10:23:33.956Z,9.50
2022-09-28T10:26:07.342Z,9.40
2022-09-28T10:28:47.425Z,9.40
2022-09-28T10:31:53.995Z,9.30
2022-09-28T10:34:29.466Z,9.30
2022-09-28T10:37:03.269Z,9.20
2022-09-28T10:39:53.658Z,9.10
2022-09-28T10:42:27.226Z,9.10
2022-09-28T10:45:23.312Z,9.10
2022-09-28T10:47:50.567Z,9.20
2022-09-28T10:50:24.429Z,9.30
2022-09-28T10:53:17.740Z,9.30
2022-09-28T10:56:28.968Z,9.30
2022-09-28T10:59:41.303Z,9.30
2022-09-28T11:02:27.217Z,9.30
2022-09-28T11:05:02.626Z,9.30
2022-09-28T11:07:45.602Z,9.20
2022-09-28T11:10:26.071Z,9.20
2022-09-28T11:12:56.550Z,9.10
2022-09-28T11:15:32.432Z,9.20
2022-09-28T11:18:31.332Z,9.20
2022-09-28T11:21:13.851Z,9.30
2022-09-28T11:24:19.338Z,9.50
2022-09-28T11:26:56.352Z,9.60
2022-09-28T11:29:43.109Z,9.60
2022-09-28T11:32:43.010Z,9.70
2022-09-28T11:35:23.259Z,9.80
2022-09-28T11:38:18.529Z,9.70
2022-09-28T11:41:22.783Z,9.70
2022-09-28T11:43:59.253Z,9.80
2022-09-28T11:46:37.010Z,10.00
2022-09-28T11:49:20.133Z,10.10
2022-09-28T11:51:49.775Z,10.10
2022-09-28T11:54:28.831Z,10.10
2022-09-28T11:56:59.786Z,10.10
2022-09-28T11:59:50.814Z,10.10
2022-09-28T12:02:27.515Z,10.10
2022-09-28T12:05:23.942Z,9.90
2022-09-28T12:08:13.282Z,9.90
2022-09-28T12:11:12.862Z,9.70
2022-09-28T12:14:01.801Z,9.70
2022-09-28T12:19:29.409Z,9.70
2022-09-28T12:22:13.560Z,9.60
2022-09-28T12:24:47.590Z,9.70
2022-09-28T12:27:25.878Z,9.60
2022-09-28T12:30:02.718Z,9.60
2022-09-28T12:32:41.759Z,9.60
2022-09-28T12:35:43.481Z,9.60
2022-09-28T12:38:37.323Z,9.60
2022-09-28T12:41:22.481Z,9.50
2022-09-28T12:44:21.967Z,9.40
2022-09-28T12:47:05.532Z,9.40
2022-09-28T12:50:39.573Z,9.50
2022-09-28T12:53:37.130Z,9.50
2022-09-28T12:56:09.707Z,9.50
2022-09-28T12:59:01.483Z,9.50
2022-09-28T13:02:08.091Z,9.40
2022-09-28T13:04:54.135Z,9.40
2022-09-28T13:07:42.619Z,9.40
2022-09-28T13:10:32.530Z,9.60
2022-09-28T13:13:06.536Z,9.60
2022-09-28T13:15:50.605Z,9.70
2022-09-28T13:18:44.580Z,9.80
2022-09-28T13:21:26.199Z,9.80
2022-09-28T13:24:08.725Z,9.60
2022-09-28T13:26:46.112Z,9.50
2022-09-28T13:29:15.887Z,9.60
2022-09-28T13:31:56.679Z,9.70
2022-09-28T13:34:30.500Z,9.70
2022-09-28T13:37:19.906Z,9.80
2022-09-28T13:39:52.105Z,9.90
2022-09-28T13:42:27.541Z,10.00
2022-09-28T13:44:59.460Z,10.20
2022-09-28T13:47:42.168Z,10.20
2022-09-28T13:50:32.031Z,10.20
2022-09-28T13:53:19.150Z,10.30
2022-09-28T13:55:52.973Z,10.30
2022-09-28T13:58:42.216Z,10.40
2022-09-28T14:01:15.558Z,10.30
2022-09-28T14:03:42.873Z,10.30
2022-09-28T14:06:29.915Z,10.40
2022-09-28T14:09:43.047Z,10.60
2022-09-28T14:12:32.898Z,10.70
2022-09-28T14:15:00.628Z,10.60
2022-09-28T14:17:27.312Z,10.60
2022-09-28T14:20:00.058Z,10.60
2022-09-28T14:22:37.000Z,10.70
2022-09-28T14:25:16.452Z,10.50
2022-09-28T14:27:52.319Z,10.70
2022-09-28T14:30:23.330Z,10.70
2022-09-28T14:32:54.328Z,10.70
2022-09-28T14:35:27.229Z,10.70
2022-09-28T14:38:18.157Z,10.50
2022-09-28T14:41:15.191Z,10.30
2022-09-28T14:43:44.903Z,10.40
2022-09-28T14:46:11.659Z,10.30
2022-09-28T14:48:48.686Z,10.20
2022-09-28T14:51:30.103Z,10.00
2022-09-28T14:54:02.599Z,9.80
2022-09-28T14:56:33.091Z,10.00
2022-09-28T14:59:00.478Z,10.10
2022-09-28T15:01:27.503Z,10.20
2022-09-28T15:04:01.446Z,10.30
2022-09-28T15:06:47.142Z,10.40
2022-09-28T15:09:30.667Z,10.50
2022-09-28T15:12:09.715Z,10.40
2022-09-28T15:14:46.754Z,10.30
2022-09-28T15:17:18.951Z,10.20
2022-09-28T15:20:08.645Z,10.00
2022-09-28T15:22:37.272Z,9.70
2022-09-28T15:25:13.293Z,9.40
2022-09-28T15:27:41.409Z,9.30
2022-09-28T15:30:25.458Z,9.20
2022-09-28T15:32:56.661Z,9.10
2022-09-28T15:35:26.879Z,9.10
2022-09-28T15:37:55.339Z,9.10
2022-09-28T15:40:28.873Z,9.00
2022-09-28T15:42:59.069Z,8.90
2022-09-28T15:45:37.857Z,8.80
2022-09-28T15:48:20.371Z,8.90
2022-09-28T15:51:10.942Z,8.90
2022-09-28T15:53:56.022Z,8.80
2022-09-28T15:56:22.873Z,8.70
2022-09-28T15:59:10.591Z,8.70
2022-09-28T16:01:39.788Z,8.60
2022-09-28T16:04:39.519Z,8.60
2022-09-28T16:07:09.269Z,8.50
2022-09-28T16:10:02.916Z,8.40
2022-09-28T16:12:49.965Z,8.50
2022-09-28T16:15:34.299Z,8.50
2022-09-28T16:18:13.136Z,8.50
2022-09-28T16:20:40.918Z,8.50
2022-09-28T16:23:16.849Z,8.40
2022-09-28T16:25:54.300Z,8.30
2022-09-28T16:28:35.999Z,8.20
2022-09-28T16:31:14.535Z,8.20
2022-09-28T16:33:48.700Z,8.10
2022-09-28T16:36:17.184Z,8.00
2022-09-28T16:38:47.454Z,8.10
2022-09-28T16:41:26.360Z,8.20
2022-09-28T16:44:01.066Z,8.20
2022-09-28T16:46:36.385Z,8.20
2022-09-28T16:49:05.725Z,8.40
2022-09-28T16:51:33.571Z,8.50
2022-09-28T16:54:35.058Z,8.50
2022-09-28T16:57:03.053Z,8.30
2022-09-28T16:59:30.555Z,8.10
2022-09-28T17:01:57.781Z,8.10
2022-09-28T17:04:25.763Z,8.10
2022-09-28T17:06:54.427Z,8.00
2022-09-28T17:09:22.176Z,8.00
2022-09-28T17:11:55.471Z,7.90
2022-09-28T17:14:23.472Z,7.90
2022-09-28T17:17:13.690Z,7.90
2022-09-28T17:19:40.545Z,7.90
2022-09-28T17:22:09.221Z,7.90
2022-09-28T17:24:36.405Z,8.00
2022-09-28T17:27:03.581Z,7.90
2022-09-28T17:29:30.557Z,7.70
2022-09-28T17:31:57.431Z,7.60
2022-09-28T17:34:24.601Z,7.60
2022-09-28T17:36:52.088Z,7.60
2022-09-28T17:39:19.232Z,7.70
2022-09-28T17:41:45.947Z,7.70
2022-09-28T17:44:15.832Z,7.70
2022-09-28T17:46:49.168Z,7.70
2022-09-28T17:49:16.867Z,7.80
2022-09-28T17:51:43.676Z,7.80
2022-09-28T17:54:10.789Z,7.80
2022-09-28T17:56:37.554Z,7.90
2022-09-28T17:59:07.349Z,7.80
2022-09-28T18:01:37.982Z,7.80
2022-09-28T18:04:08.163Z,7.70
2022-09-28T18:06:36.927Z,7.70
2022-09-28T18:09:05.193Z,7.90
2022-09-28T18:11:33.104Z,7.90
2022-09-28T18:13:59.910Z,7.70
2022-09-28T18:16:28.595Z,7.70
2022-09-28T18:18:55.459Z,7.70
2022-09-28T18:21:22.344Z,7.70
2022-09-28T18:23:50.355Z,7.80
2022-09-28T18:26:19.591Z,7.80
2022-09-28T18:28:46.497Z,7.80
2022-09-28T18:31:15.192Z,7.80
2022-09-28T18:33:41.968Z,7.80
2022-09-28T18:36:08.762Z,7.60
2022-09-28T18:38:36.581Z,7.50
2022-09-28T18:41:16.232Z,7.50
2022-09-28T18:43:49.019Z,7.50
2022-09-28T18:46:18.263Z,7.50
2022-09-28T18:48:46.324Z,7.50
2022-09-28T18:51:13.310Z,7.50
2022-09-28T18:53:40.783Z,7.60
2022-09-28T18:56:09.835Z,7.50
2022-09-28T18:58:38.535Z,7.50
2022-09-28T19:01:29.362Z,7.50
2022-09-28T19:04:03.502Z,7.50
2022-09-28T19:06:31.740Z,7.40
2022-09-28T19:08:59.337Z,7.30
2022-09-28T19:11:26.738Z,7.30
2022-09-28T19:13:54.922Z,7.30
2022-09-28T19:16:28.354Z,7.30
2022-09-28T19:18:58.911Z,7.30
2022-09-28T19:21:26.717Z,7.20
2022-09-28T19:23:55.228Z,7.20
2022-09-28T19:26:24.643Z,7.20
2022-09-28T19:28:51.883Z,7.10
2022-09-28T19:31:21.682Z,7.10
2022-09-28T19:33:48.421Z,7.10
2022-09-28T19:36:24.214Z,7.20
2022-09-28T19:38:52.648Z,7.10
2022-09-28T19:41:43.498Z,7.10
2022-09-28T19:44:25.338Z,7.00
2022-09-28T19:46:58.600Z,7.10
2022-09-28T19:49:27.433Z,7.20
2022-09-28T19:52:14.943Z,7.20
2022-09-28T19:54:56.810Z,7.30
2022-09-28T19:57:29.784Z,7.30
2022-09-28T20:00:01.692Z,7.30
2022-09-28T20:02:33.342Z,7.10
2022-09-28T20:05:00.144Z,7.00
2022-09-28T20:07:26.931Z,7.10
2022-09-28T20:09:53.658Z,7.00
2022-09-28T20:12:20.699Z,7.10
2022-09-28T20:14:47.431Z,7.10
2022-09-28T20:17:14.284Z,7.10
2022-09-28T20:19:42.207Z,7.00
2022-09-28T20:22:10.798Z,7.00
2022-09-28T20:24:37.759Z,7.00
2022-09-28T20:27:04.445Z,6.90
2022-09-28T20:29:32.034Z,6.90
2022-09-28T20:31:59.038Z,6.80
2022-09-28T20:34:25.817Z,6.90
2022-09-28T20:36:52.622Z,6.90
2022-09-28T20:39:19.398Z,6.80
2022-09-28T20:41:48.227Z,6.90
2022-09-28T20:44:15.024Z,6.90
2022-09-28T20:46:46.640Z,6.90
2022-09-28T20:49:15.939Z,6.90
2022-09-28T20:51:42.723Z,6.80
2022-09-28T20:54:09.473Z,6.80
2022-09-28T20:56:38.567Z,6.70
2022-09-28T20:59:09.779Z,6.70
2022-09-28T21:01:36.537Z,6.60
2022-09-28T21:04:05.612Z,6.60
2022-09-28T21:06:37.529Z,6.60
2022-09-28T21:09:05.951Z,6.60
2022-09-28T21:11:34.161Z,6.50
2022-09-28T21:14:03.075Z,6.50
2022-09-28T21:16:32.496Z,6.50
2022-09-28T21:18:59.181Z,6.50
2022-09-28T21:21:26.557Z,6.50
2022-09-28T21:23:57.685Z,6.50
2022-09-28T21:26:27.393Z,6.50
2022-09-28T21:28:55.881Z,6.50
2022-09-28T21:31:28.709Z,6.40
2022-09-28T21:33:58.859Z,6.50
2022-09-28T21:36:25.793Z,6.50
2022-09-28T21:38:54.455Z,6.50
2022-09-28T21:41:21.164Z,6.40
2022-09-28T21:43:47.879Z,6.40
2022-09-28T21:46:14.616Z,6.40
2022-09-28T21:48:41.504Z,6.40
2022-09-28T21:51:10.472Z,6.50
2022-09-28T21:53:38.029Z,6.50
2022-09-28T21:56:07.537Z,6.60
2022-09-28T21:58:35.844Z,6.60
2022-09-28T22:01:08.415Z,6.60
2022-09-28T22:03:36.630Z,6.60
2022-09-28T22:06:04.233Z,6.70
2022-09-28T22:08:31.059Z,6.70
2022-09-28T22:11:01.782Z,6.70
2022-09-28T22:13:37.258Z,6.70
2022-09-28T22:16:04.319Z,6.70
2022-09-28T22:18:32.378Z,6.70
2022-09-28T22:21:07.115Z,6.60
2022-09-28T22:23:34.411Z,6.60
2022-09-28T22:26:11.264Z,6.70
2022-09-28T22:28:39.837Z,6.60
2022-09-28T22:31:06.726Z,6.70
2022-09-28T22:33:34.074Z,6.70
2022-09-28T22:36:00.853Z,6.70
2022-09-28T22:38:31.129Z,6.70
2022-09-28T22:40:58.318Z,6.70
2022-09-28T22:43:26.248Z,6.70
2022-09-28T22:46:12.977Z,6.80
2022-09-28T22:48:42.258Z,6.80
2022-09-28T22:51:10.753Z,6.80
2022-09-28T22:53:38.281Z,6.80
2022-09-28T22:56:06.465Z,6.80
2022-09-28T22:58:34.414Z,6.70
2022-09-28T23:01:22.214Z,6.70
2022-09-28T23:03:50.406Z,6.80
2022-09-28T23:06:19.285Z,6.80
2022-09-28T23:08:47.207Z,6.90
2022-09-28T23:11:15.176Z,6.90
2022-09-28T23:13:41.992Z,6.80
2022-09-28T23:16:11.848Z,6.80
2022-09-28T23:18:42.441Z,6.80
2022-09-28T23:21:17.562Z,6.80
2022-09-28T23:23:45.479Z,6.80
2022-09-28T23:26:20.215Z,6.80
2022-09-28T23:28:47.031Z,6.80
2022-09-28T23:31:23.050Z,6.80
2022-09-28T23:33:50.487Z,6.80
2022-09-28T23:36:17.892Z,6.80
2022-09-28T23:38:44.693Z,6.80
2022-09-28T23:41:11.458Z,6.80
2022-09-28T23:43:38.279Z,6.80
2022-09-28T23:46:05.793Z,6.80
2022-09-28T23:48:33.333Z,6.80
2022-09-28T23:51:00.299Z,6.90
2022-09-28T23:53:28.809Z,6.90
2022-09-28T23:55:55.717Z,6.90
2022-09-28T23:58:22.600Z,6.90
